createdAt,value
2018-05-06T00:01:19.352Z,7.90
2018-05-06T00:04:29.461Z,7.90
2018-05-06T00:07:40.317Z,7.80
2018-05-06T00:10:50.132Z,7.80
2018-05-06T00:14:00.052Z,7.90
2018-05-06T00:24:26.665Z,7.80
2018-05-06T00:27:37.324Z,7.60
2018-05-06T00:37:39.189Z,7.40
2018-05-06T00:40:49.775Z,7.10
2018-05-06T00:44:00.807Z,7.10
2018-05-06T00:47:10.629Z,7.10
2018-05-06T00:50:21.319Z,7.00
2018-05-06T00:53:31.268Z,7.00
2018-05-06T00:56:41.330Z,6.80
2018-05-06T00:59:51.269Z,6.80
2018-05-06T01:03:02.007Z,6.70
2018-05-06T01:06:12.992Z,6.70
2018-05-06T01:09:23.425Z,6.70
2018-05-06T01:12:34.028Z,6.80
2018-05-06T01:15:44.836Z,6.80
2018-05-06T01:18:54.812Z,6.90
2018-05-06T01:22:04.991Z,6.90
2018-05-06T01:25:14.819Z,6.90
2018-05-06T01:28:24.697Z,6.80
2018-05-06T01:31:34.827Z,7.00
2018-05-06T01:34:44.895Z,6.90
2018-05-06T01:37:55.507Z,6.80
2018-05-06T01:41:06.107Z,6.80
2018-05-06T01:44:16.430Z,6.80
2018-05-06T01:47:26.728Z,6.80
2018-05-06T01:50:36.556Z,6.80
2018-05-06T01:53:46.882Z,6.60
2018-05-06T01:56:57.221Z,6.50
2018-05-06T02:00:07.506Z,6.40
2018-05-06T02:03:17.424Z,6.50
2018-05-06T02:06:27.885Z,6.40
2018-05-06T02:09:38.056Z,6.50
2018-05-06T02:12:48.056Z,6.40
2018-05-06T02:15:58.849Z,6.30
2018-05-06T02:19:09.846Z,6.20
2018-05-06T02:22:20.071Z,6.20
2018-05-06T02:25:30.887Z,6.10
2018-05-06T02:28:41.110Z,6.10
2018-05-06T02:31:50.857Z,5.90
2018-05-06T02:35:00.966Z,5.90
2018-05-06T02:38:10.952Z,5.90
2018-05-06T02:41:20.777Z,5.80
2018-05-06T02:44:43.188Z,5.80
2018-05-06T02:47:53.325Z,5.70
2018-05-06T02:58:07.946Z,5.70
2018-05-06T03:01:17.760Z,5.70
2018-05-06T05:31:47.390Z,7.50
2018-05-06T05:34:57.500Z,7.70
2018-05-06T05:38:08.756Z,8.10
2018-05-06T05:41:18.979Z,8.10
2018-05-06T05:44:29.524Z,8.40
2018-05-06T05:47:39.646Z,8.40
2018-05-06T05:50:49.637Z,8.60
2018-05-06T05:54:00.214Z,8.70
2018-05-06T05:57:11.392Z,8.80
2018-05-06T06:00:21.709Z,8.80
2018-05-06T06:03:32.062Z,8.90
2018-05-06T06:06:42.331Z,9.00
2018-05-06T06:09:52.210Z,9.20
2018-05-06T06:13:02.254Z,9.30
2018-05-06T06:16:13.116Z,9.40
2018-05-06T06:19:23.248Z,9.50
2018-05-06T06:22:33.583Z,9.60
2018-05-06T06:25:44.343Z,9.80
2018-05-06T06:28:54.785Z,10.00
2018-05-06T06:32:05.310Z,10.10
2018-05-06T06:35:16.458Z,10.30
2018-05-06T06:38:27.220Z,10.50
2018-05-06T06:41:37.340Z,10.70
2018-05-06T06:44:48.470Z,10.80
2018-05-06T06:47:58.573Z,11.00
2018-05-06T06:51:08.753Z,11.20
2018-05-06T06:54:19.198Z,11.30
2018-05-06T06:57:29.411Z,11.70
2018-05-06T07:00:40.073Z,11.90
2018-05-06T07:03:50.683Z,12.30
2018-05-06T07:07:01.303Z,12.30
2018-05-06T07:10:12.009Z,12.60
2018-05-06T07:13:22.192Z,13.10
2018-05-06T07:16:32.658Z,13.50
2018-05-06T07:19:43.177Z,13.80
2018-05-06T07:22:53.837Z,14.20
2018-05-06T07:26:04.588Z,14.40
2018-05-06T07:29:14.745Z,14.40
2018-05-06T07:32:25.413Z,14.50
2018-05-06T07:35:35.932Z,14.80
2018-05-06T07:38:46.971Z,15.00
2018-05-06T07:41:58.030Z,15.00
2018-05-06T07:45:08.073Z,15.20
2018-05-06T07:48:18.196Z,15.30
2018-05-06T07:51:28.216Z,15.60
2018-05-06T07:54:38.324Z,15.70
2018-05-06T07:57:48.086Z,15.80
2018-05-06T08:00:58.398Z,16.00
2018-05-06T08:04:08.328Z,16.00
2018-05-06T08:07:18.469Z,16.20
2018-05-06T08:10:31.142Z,16.50
2018-05-06T08:13:46.133Z,16.50
2018-05-06T08:16:56.571Z,16.50
2018-05-06T08:20:06.542Z,16.60
2018-05-06T08:23:16.948Z,16.70
2018-05-06T08:26:26.837Z,16.60
2018-05-06T08:29:36.760Z,16.70
2018-05-06T08:32:47.664Z,16.80
2018-05-06T08:35:57.906Z,16.80
2018-05-06T08:39:07.941Z,16.90
2018-05-06T08:42:18.581Z,17.00
2018-05-06T08:45:29.244Z,16.90
2018-05-06T08:48:40.094Z,17.20
2018-05-06T08:51:50.765Z,17.10
2018-05-06T08:55:01.410Z,17.10
2018-05-06T08:58:11.288Z,17.10
2018-05-06T09:01:21.889Z,17.10
2018-05-06T09:04:31.904Z,17.30
2018-05-06T09:07:41.681Z,17.30
2018-05-06T09:10:51.580Z,17.30
2018-05-06T09:14:01.860Z,17.10
2018-05-06T09:17:14.379Z,17.30
2018-05-06T09:20:25.775Z,17.60
2018-05-06T09:23:37.314Z,17.60
2018-05-06T09:26:48.414Z,17.90
2018-05-06T09:29:58.889Z,17.80
2018-05-06T09:33:10.040Z,17.80
2018-05-06T09:36:21.350Z,18.30
2018-05-06T09:39:32.845Z,18.30
2018-05-06T09:42:43.445Z,18.30
2018-05-06T09:45:53.620Z,18.40
2018-05-06T09:49:04.472Z,18.20
2018-05-06T09:52:14.319Z,18.20
2018-05-06T09:55:25.267Z,18.30
2018-05-06T09:58:36.178Z,18.30
2018-05-06T10:01:47.049Z,18.40
2018-05-06T10:04:58.194Z,18.40
2018-05-06T10:08:09.619Z,18.60
2018-05-06T10:11:19.884Z,18.60
2018-05-06T10:14:30.823Z,18.80
2018-05-06T10:17:40.746Z,18.80
2018-05-06T10:20:51.939Z,18.80
2018-05-06T10:24:03.241Z,19.00
2018-05-06T10:27:14.353Z,19.10
2018-05-06T10:30:25.017Z,19.10
2018-05-06T10:33:36.474Z,19.10
2018-05-06T10:36:46.586Z,19.10
2018-05-06T10:39:57.818Z,18.90
2018-05-06T10:43:08.072Z,18.80
2018-05-06T10:46:18.505Z,18.90
2018-05-06T10:49:28.640Z,18.90
2018-05-06T10:52:38.881Z,19.10
2018-05-06T10:55:49.661Z,19.30
2018-05-06T10:59:00.612Z,19.30
2018-05-06T11:02:11.370Z,19.40
2018-05-06T11:05:22.846Z,19.40
2018-05-06T11:08:32.568Z,19.40
2018-05-06T11:11:43.338Z,19.90
2018-05-06T11:14:54.055Z,19.80
2018-05-06T11:18:04.659Z,19.80
2018-05-06T11:21:14.656Z,19.80
2018-05-06T11:24:24.733Z,20.20
2018-05-06T11:27:35.268Z,20.00
2018-05-06T11:30:45.399Z,19.90
2018-05-06T11:33:56.229Z,20.10
2018-05-06T11:37:06.550Z,20.20
2018-05-06T11:40:17.303Z,20.40
2018-05-06T11:43:27.768Z,20.40
2018-05-06T11:46:38.067Z,20.70
2018-05-06T11:49:48.140Z,20.50
2018-05-06T11:52:58.301Z,20.40
2018-05-06T11:56:09.677Z,20.50
2018-05-06T11:59:19.896Z,20.50
2018-05-06T12:02:29.859Z,20.50
2018-05-06T12:05:39.899Z,20.40
2018-05-06T12:08:49.865Z,20.60
2018-05-06T12:12:00.404Z,20.30
2018-05-06T12:15:10.588Z,20.60
2018-05-06T12:18:20.711Z,20.70
2018-05-06T12:21:30.743Z,20.70
2018-05-06T12:24:41.489Z,20.70
2018-05-06T12:27:52.218Z,20.50
2018-05-06T12:31:02.920Z,20.90
2018-05-06T12:34:13.432Z,20.80
2018-05-06T12:37:24.456Z,20.50
2018-05-06T12:40:34.795Z,20.50
2018-05-06T12:43:45.090Z,21.00
2018-05-06T12:46:54.777Z,21.10
2018-05-06T12:50:05.974Z,21.00
2018-05-06T12:53:16.481Z,21.00
2018-05-06T12:56:27.101Z,21.00
2018-05-06T12:59:37.102Z,20.90
2018-05-06T13:02:46.901Z,20.80
2018-05-06T13:05:56.843Z,20.90
2018-05-06T13:09:06.199Z,21.00
2018-05-06T13:12:16.427Z,20.90
2018-05-06T13:15:29.041Z,21.10
2018-05-06T13:18:40.012Z,21.10
2018-05-06T13:21:50.692Z,21.20
2018-05-06T13:25:01.400Z,21.00
2018-05-06T13:28:11.768Z,21.10
2018-05-06T13:31:25.259Z,21.30
2018-05-06T13:34:38.188Z,21.10
2018-05-06T14:22:12.998Z,21.10
2018-05-06T14:25:23.743Z,21.50
2018-05-06T14:28:33.903Z,21.50
2018-05-06T14:31:44.333Z,21.20
2018-05-06T14:34:55.165Z,21.20
2018-05-06T14:38:05.787Z,20.90
2018-05-06T14:41:16.519Z,21.30
2018-05-06T14:44:26.774Z,21.30
2018-05-06T14:47:48.334Z,21.10
2018-05-06T14:50:59.232Z,21.10
2018-05-06T14:54:10.702Z,20.90
2018-05-06T14:57:20.901Z,20.90
2018-05-06T15:00:31.408Z,20.90
2018-05-06T15:03:41.571Z,21.00
2018-05-06T15:06:52.054Z,21.00
2018-05-06T15:10:02.640Z,21.10
2018-05-06T15:13:12.721Z,21.00
2018-05-06T15:16:22.796Z,21.10
2018-05-06T15:19:33.073Z,21.10
2018-05-06T15:22:45.063Z,21.00
2018-05-06T15:25:55.110Z,20.90
2018-05-06T15:29:05.089Z,20.70
2018-05-06T15:32:15.139Z,20.70
2018-05-06T15:35:26.791Z,20.70
2018-05-06T15:38:38.278Z,20.70
2018-05-06T15:41:48.711Z,20.60
2018-05-06T15:44:59.423Z,20.60
2018-05-06T15:48:11.073Z,20.60
2018-05-06T15:51:21.050Z,20.60
2018-05-06T15:54:31.372Z,20.70
2018-05-06T15:57:42.140Z,20.30
2018-05-06T16:00:51.903Z,20.30
2018-05-06T16:04:18.667Z,20.30
2018-05-06T16:07:28.996Z,20.20
2018-05-06T16:10:39.218Z,20.20
2018-05-06T16:13:59.374Z,20.10
2018-05-06T16:17:09.952Z,19.90
2018-05-06T16:20:20.189Z,20.00
2018-05-06T16:23:30.214Z,19.90
2018-05-06T16:26:40.580Z,19.90
2018-05-06T16:29:51.151Z,19.90
2018-05-06T16:33:02.358Z,19.70
2018-05-06T16:36:13.205Z,19.70
2018-05-06T16:39:24.124Z,19.70
2018-05-06T16:42:35.419Z,19.40
2018-05-06T16:45:45.739Z,19.40
2018-05-06T16:48:56.665Z,19.40
2018-05-06T16:52:06.792Z,19.20
2018-05-06T16:55:17.552Z,19.20
2018-05-06T16:58:27.439Z,19.20
2018-05-06T17:01:37.998Z,19.10
2018-05-06T17:04:49.170Z,18.80
2018-05-06T17:07:58.860Z,18.80
2018-05-06T17:11:09.304Z,18.80
2018-05-06T17:14:20.426Z,18.70
2018-05-06T17:17:30.586Z,18.70
2018-05-06T17:20:40.651Z,18.70
2018-05-06T17:23:50.884Z,18.60
2018-05-06T17:27:01.368Z,18.50
2018-05-06T17:30:12.036Z,18.40
2018-05-06T17:33:22.491Z,18.40
2018-05-06T17:36:34.100Z,18.30
2018-05-06T17:39:44.393Z,18.20
2018-05-06T17:42:59.125Z,18.10
2018-05-06T17:46:11.389Z,18.10
2018-05-06T17:49:22.542Z,17.90
2018-05-06T17:52:33.072Z,17.90
2018-05-06T17:55:42.599Z,17.90
2018-05-06T17:58:53.309Z,17.80
2018-05-06T18:02:03.860Z,17.70
2018-05-06T18:05:13.966Z,17.70
2018-05-06T18:08:24.248Z,17.60
2018-05-06T18:11:34.091Z,17.40
2018-05-06T18:14:44.305Z,17.40
2018-05-06T18:17:54.357Z,17.30
2018-05-06T18:21:05.489Z,17.10
2018-05-06T18:24:15.768Z,17.10
2018-05-06T18:27:25.925Z,17.10
2018-05-06T18:30:35.692Z,17.00
2018-05-06T18:33:46.986Z,16.90
2018-05-06T18:36:57.403Z,16.80
2018-05-06T18:40:07.204Z,16.60
2018-05-06T18:43:17.904Z,16.60
2018-05-06T18:46:27.951Z,16.50
2018-05-06T18:49:38.914Z,16.50
2018-05-06T18:52:49.562Z,16.40
2018-05-06T18:55:59.743Z,16.40
2018-05-06T18:59:09.952Z,16.30
2018-05-06T19:02:20.046Z,16.20
2018-05-06T19:05:31.420Z,16.20
2018-05-06T19:08:41.280Z,16.10
2018-05-06T19:11:51.645Z,16.00
2018-05-06T19:15:01.648Z,16.00
2018-05-06T19:18:12.306Z,15.90
2018-05-06T19:21:22.399Z,15.90
2018-05-06T19:24:33.145Z,15.80
2018-05-06T19:27:43.926Z,15.80
2018-05-06T19:30:54.029Z,15.70
2018-05-06T19:34:03.705Z,15.60
2018-05-06T19:37:15.451Z,15.50
2018-05-06T19:40:25.341Z,15.50
2018-05-06T19:43:35.708Z,15.40
2018-05-06T19:46:45.936Z,15.40
2018-05-06T19:49:56.795Z,15.30
2018-05-06T19:53:06.795Z,15.30
2018-05-06T19:56:17.588Z,15.30
2018-05-06T19:59:28.612Z,15.20
2018-05-06T20:02:38.402Z,15.20
2018-05-06T20:05:48.795Z,15.10
2018-05-06T20:08:59.934Z,15.00
2018-05-06T20:12:10.089Z,15.00
2018-05-06T20:15:20.603Z,14.90
2018-05-06T20:18:30.533Z,14.90
2018-05-06T20:21:41.221Z,14.70
2018-05-06T20:24:52.385Z,14.60
2018-05-06T20:28:02.572Z,14.60
2018-05-06T20:31:12.614Z,14.50
2018-05-06T20:34:22.645Z,14.50
2018-05-06T20:37:34.420Z,14.30
2018-05-06T20:40:44.528Z,14.30
2018-05-06T20:43:55.388Z,14.00
2018-05-06T20:47:06.057Z,13.90
2018-05-06T20:50:16.945Z,13.70
2018-05-06T20:53:27.320Z,13.70
2018-05-06T20:56:38.010Z,13.40
2018-05-06T20:59:47.846Z,13.40
2018-05-06T21:02:57.821Z,13.30
2018-05-06T21:06:08.579Z,13.20
2018-05-06T21:09:18.750Z,13.10
2018-05-06T21:12:29.361Z,13.10
2018-05-06T21:15:40.081Z,13.10
2018-05-06T21:18:50.222Z,13.10
2018-05-06T21:22:00.517Z,13.00
2018-05-06T21:25:10.010Z,12.90
2018-05-06T21:28:19.905Z,12.80
2018-05-06T21:31:30.458Z,12.70
2018-05-06T21:34:41.024Z,12.70
2018-05-06T21:37:51.492Z,12.50
2018-05-06T21:41:02.745Z,12.40
2018-05-06T21:44:13.175Z,12.30
2018-05-06T21:47:23.244Z,12.20
2018-05-06T21:50:33.313Z,12.00
2018-05-06T21:53:43.884Z,11.80
2018-05-06T21:56:54.761Z,11.80
2018-05-06T22:00:04.775Z,11.80
2018-05-06T22:03:15.158Z,11.80
2018-05-06T22:06:25.286Z,11.70
2018-05-06T22:09:35.200Z,11.60
2018-05-06T22:12:45.313Z,11.60
2018-05-06T22:15:55.212Z,11.70
2018-05-06T22:19:07.278Z,11.70
2018-05-06T22:22:17.903Z,11.50
2018-05-06T22:25:28.346Z,11.50
2018-05-06T22:28:38.906Z,11.50
2018-05-06T22:31:49.349Z,11.50
2018-05-06T22:35:00.505Z,11.30
2018-05-06T22:38:11.384Z,11.30
2018-05-06T22:41:21.118Z,11.30
2018-05-06T22:44:31.613Z,11.20
2018-05-06T22:47:41.392Z,11.10
2018-05-06T22:50:52.083Z,11.10
2018-05-06T22:54:02.625Z,10.90
2018-05-06T22:57:12.361Z,10.90
2018-05-06T23:00:23.073Z,10.80
2018-05-06T23:03:33.805Z,10.80
2018-05-06T23:06:43.564Z,10.80
2018-05-06T23:09:53.654Z,10.70
2018-05-06T23:13:03.822Z,10.70
2018-05-06T23:16:13.692Z,10.50
2018-05-06T23:19:23.637Z,10.50
2018-05-06T23:22:33.964Z,10.40
2018-05-06T23:25:43.932Z,10.30
2018-05-06T23:28:54.347Z,10.30
2018-05-06T23:32:04.568Z,10.30
2018-05-06T23:35:14.981Z,10.40
2018-05-06T23:38:25.090Z,10.50
2018-05-06T23:41:35.538Z,10.50
2018-05-06T23:44:45.942Z,10.40
2018-05-06T23:47:55.760Z,10.40
2018-05-06T23:51:06.142Z,10.20
2018-05-06T23:54:16.601Z,10.00
2018-05-06T23:57:26.357Z,10.00
